UCSB Student Dorm Boxes, California
Current Conditions -  °F | °C
As of 10:53 PM on Wednesday 22 Oct 2014 (Local Time) from KSBA Reporting Station
Clear Clear  
Wind Chill: 60°   Ceiling: Unl
Heat Index: 60°   Visibility: 10mi
Dew Point: 50°   Wind: 0mph
Humidity: 69%   Direction: NA
Pressure: 29.93"   Gusts: NA
Location:  34.4564°N, 119.867°W
Report Text: KSBA 230553Z 00000KT 10SM CLR 16/10 A2993 RMK AO2 SLP135 T01560100 10256 20156 51011
Loading
Personal Weather Stations






























Interactive Weather Map
Tropical Storm Tracking
New forecast layout! Learn more

10-Day Weather Forecast

Advertisements
Track Severe Weather on mobile